Time;durP1;ratioP1;P1;durP2;ratioP2;P2;SDS_P1;SDS_P2;PMS_P1;PMS_P2;Temp;Humidity;BMP_temperature;BMP_pressure;BME280_temperature;BME280_humidity;BME280_pressure;Samples;Min_cycle;Max_cycle;Signal;HPM_P1;HPM_P2
2024/01/30 00:00:26;;;;;;;0.87;0.87;;;;;;;2.93;100.00;102602.13;5109698;28;20209;-75
2024/01/30 00:02:52;;;;;;;0.83;0.83;;;;;;;3.47;100.00;102688.88;5108005;28;20236;-78
2024/01/30 00:05:19;;;;;;;0.83;0.83;;;;;;;3.43;100.00;102693.63;5106408;28;20251;-78
2024/01/30 00:07:47;;;;;;;0.80;0.80;;;;;;;3.51;100.00;102695.19;5099074;28;20202;-79
2024/01/30 00:10:14;;;;;;;1.43;1.43;;;;;;;3.44;100.00;102673.25;5094388;28;20248;-79
2024/01/30 00:12:41;;;;;;;1.87;1.80;;;;;;;3.57;100.00;102694.81;5095883;28;20216;-79
2024/01/30 00:15:09;;;;;;;1.50;1.50;;;;;;;3.60;100.00;102700.19;5094014;28;20213;-78
2024/01/30 00:17:36;;;;;;;1.27;1.27;;;;;;;3.62;100.00;102694.41;5059149;28;20281;-79
2024/01/30 00:20:05;;;;;;;2.10;2.00;;;;;;;3.62;100.00;102703.78;5086638;28;20255;-79
2024/01/30 00:22:32;;;;;;;1.20;1.20;;;;;;;3.43;100.00;102676.56;5095537;28;20198;-79
2024/01/30 00:25:00;;;;;;;0.80;0.80;;;;;;;3.47;100.00;102699.16;5077078;28;20206;-77
2024/01/30 00:27:27;;;;;;;1.50;1.50;;;;;;;3.33;100.00;102716.69;5095786;28;20674;-78
2024/01/30 00:29:54;;;;;;;1.13;1.03;;;;;;;3.11;100.00;102685.72;5095223;28;20198;-78
2024/01/30 00:32:22;;;;;;;0.90;0.90;;;;;;;3.22;100.00;102695.25;5095527;28;20726;-78
2024/01/30 00:34:49;;;;;;;1.17;1.17;;;;;;;2.85;100.00;102615.97;5096133;28;20228;-78
2024/01/30 00:37:16;;;;;;;0.80;0.80;;;;;;;3.27;100.00;102698.22;5096345;28;20198;-78
2024/01/30 00:39:43;;;;;;;1.13;1.10;;;;;;;3.26;100.00;102694.75;5093648;28;20193;-78
2024/01/30 00:42:11;;;;;;;1.33;1.33;;;;;;;2.90;100.00;102653.13;5095706;28;20202;-78
2024/01/30 00:44:39;;;;;;;0.90;0.90;;;;;;;2.93;100.00;102664.53;5095945;28;20666;-78
2024/01/30 00:47:06;;;;;;;2.53;2.20;;;;;;;3.15;100.00;102692.03;5097228;28;20252;-78
2024/01/30 00:49:32;;;;;;;1.13;1.10;;;;;;;3.07;100.00;102699.03;5095847;28;20213;-78
2024/01/30 00:51:59;;;;;;;0.90;0.90;;;;;;;3.11;100.00;102685.72;5094355;28;20213;-79
2024/01/30 00:54:26;;;;;;;1.33;1.33;;;;;;;3.06;100.00;102687.03;5097902;28;20205;-78
2024/01/30 00:56:53;;;;;;;1.53;1.53;;;;;;;3.05;100.00;102685.22;5106516;28;20195;-80
2024/01/30 00:59:21;;;;;;;3.83;3.23;;;;;;;3.09;100.00;102687.28;5097219;28;20229;-75
2024/01/30 01:01:48;;;;;;;0.93;0.93;;;;;;;3.05;100.00;102682.66;5090677;28;20232;-78
2024/01/30 01:04:14;;;;;;;1.53;1.53;;;;;;;2.94;100.00;102673.13;5092621;28;20260;-78
2024/01/30 01:06:43;;;;;;;1.33;1.23;;;;;;;3.12;100.00;102691.75;5072537;28;20202;-78
2024/01/30 01:09:11;;;;;;;1.20;1.20;;;;;;;3.11;100.00;102665.22;5079238;28;20187;-78
2024/01/30 01:11:38;;;;;;;1.00;1.00;;;;;;;3.37;100.00;102691.44;5091036;28;20232;-78
2024/01/30 01:14:05;;;;;;;1.13;1.13;;;;;;;3.42;100.00;102679.03;5106006;28;20217;-78
2024/01/30 01:16:34;;;;;;;1.00;1.00;;;;;;;3.45;100.00;102677.63;5106216;28;20646;-79
2024/01/30 01:19:00;;;;;;;2.00;1.90;;;;;;;3.48;100.00;102688.13;5103682;28;20190;-77
2024/01/30 01:21:27;;;;;;;0.87;0.87;;;;;;;3.49;100.00;102687.38;5102585;28;20637;-76
2024/01/30 01:23:54;;;;;;;0.70;0.70;;;;;;;3.57;100.00;102679.44;5103687;28;20221;-78
2024/01/30 01:26:21;;;;;;;1.87;1.77;;;;;;;3.53;100.00;102667.09;5104462;28;20205;-78
2024/01/30 01:28:48;;;;;;;1.80;1.70;;;;;;;3.53;100.00;102661.97;5103913;28;20201;-78
2024/01/30 01:31:15;;;;;;;1.10;1.10;;;;;;;3.42;100.00;102674.75;5103156;28;20190;-78
2024/01/30 01:33:43;;;;;;;4.13;1.27;;;;;;;3.24;100.00;102637.34;5099896;28;20198;-79
2024/01/30 01:36:10;;;;;;;0.70;0.70;;;;;;;3.37;100.00;102660.66;5098598;28;20205;-78
2024/01/30 01:38:36;;;;;;;1.07;1.07;;;;;;;3.38;100.00;102648.75;5098420;28;20266;-78
2024/01/30 01:41:03;;;;;;;0.80;0.80;;;;;;;3.26;100.00;102643.47;5097142;28;20198;-80
2024/01/30 01:43:30;;;;;;;0.80;0.80;;;;;;;3.30;100.00;102642.97;5094103;28;20244;-79
2024/01/30 01:45:57;;;;;;;1.00;1.00;;;;;;;3.35;100.00;102649.38;5095100;28;20202;-80
2024/01/30 01:48:24;;;;;;;2.20;2.10;;;;;;;3.00;100.00;102602.81;5100020;28;20194;-79
2024/01/30 01:50:55;;;;;;;2.40;2.20;;;;;;;3.49;100.00;102676.22;5084721;28;20203;-75
2024/01/30 01:53:22;;;;;;;1.33;1.20;;;;;;;3.42;100.00;102674.75;5084931;28;20195;-80
2024/01/30 01:55:49;;;;;;;0.80;0.80;;;;;;;3.29;100.00;102646.28;5103912;28;20197;-79
2024/01/30 01:58:17;;;;;;;0.93;0.93;;;;;;;3.47;100.00;102678.63;5103703;28;20201;-77
2024/01/30 02:00:44;;;;;;;0.80;0.80;;;;;;;3.48;100.00;102672.75;5103433;28;20190;-79
2024/01/30 02:03:12;;;;;;;1.70;1.70;;;;;;;3.45;100.00;102680.19;5105986;28;20238;-78
2024/01/30 02:05:40;;;;;;;4.90;2.50;;;;;;;3.30;100.00;102689.13;5106361;28;20722;-77
2024/01/30 02:08:09;;;;;;;0.70;0.70;;;;;;;3.36;100.00;102668.22;5102377;28;20190;-79
2024/01/30 02:10:36;;;;;;;1.43;1.43;;;;;;;3.34;100.00;102660.41;5098100;28;20200;-80
2024/01/30 02:13:04;;;;;;;1.60;1.60;;;;;;;3.49;100.00;102684.81;5099699;28;20205;-79
2024/01/30 02:15:31;;;;;;;1.13;1.13;;;;;;;3.52;100.00;102685.81;5099176;28;20285;-79
2024/01/30 02:17:58;;;;;;;1.10;1.10;;;;;;;3.48;100.00;102683.00;5098948;28;20649;-80
2024/01/30 02:20:26;;;;;;;1.00;1.00;;;;;;;3.44;100.00;102687.72;5100958;28;20198;-80
2024/01/30 02:22:56;;;;;;;2.23;1.20;;;;;;;3.48;100.00;102684.66;5067449;28;20205;-79
2024/01/30 02:25:31;;;;;;;1.00;1.00;;;;;;;3.51;100.00;102684.91;5065282;28;20335;-77
2024/01/30 02:27:58;;;;;;;0.80;0.80;;;;;;;3.53;100.00;102679.94;5103641;28;20231;-80
2024/01/30 02:30:25;;;;;;;1.13;1.13;;;;;;;3.57;100.00;102684.56;5085827;28;20243;-79
2024/01/30 02:32:51;;;;;;;1.93;1.83;;;;;;;3.51;100.00;102682.34;5100761;28;20194;-78
2024/01/30 02:35:18;;;;;;;0.80;0.80;;;;;;;3.22;100.00;102649.09;5074203;28;20190;-79
2024/01/30 02:37:45;;;;;;;1.43;1.07;;;;;;;3.47;100.00;102683.75;5100695;28;20198;-78
2024/01/30 02:40:13;;;;;;;0.70;0.70;;;;;;;3.43;100.00;102683.34;5060910;28;20205;-78
2024/01/30 02:42:41;;;;;;;2.20;1.83;;;;;;;2.96;100.00;102597.31;5089800;28;20296;-78
2024/01/30 02:45:09;;;;;;;6.53;1.47;;;;;;;3.54;100.00;102681.69;5089694;28;20627;-78
2024/01/30 02:47:36;;;;;;;0.97;0.97;;;;;;;3.05;100.00;102592.94;5090372;28;20210;-78
2024/01/30 02:50:03;;;;;;;0.80;0.80;;;;;;;3.58;100.00;102682.09;5090505;28;20206;-79
2024/01/30 02:52:29;;;;;;;1.63;1.63;;;;;;;3.54;100.00;102677.47;5091090;28;20201;-79
2024/01/30 02:54:56;;;;;;;2.83;1.30;;;;;;;3.37;100.00;102647.84;5092131;28;20206;-79
2024/01/30 02:57:24;;;;;;;1.37;1.37;;;;;;;3.56;100.00;102670.81;5090836;28;20198;-79
2024/01/30 02:59:51;;;;;;;1.47;1.47;;;;;;;3.52;100.00;102670.44;5093672;28;20300;-80
2024/01/30 03:02:18;;;;;;;1.03;1.03;;;;;;;3.53;100.00;102661.97;5099153;28;20226;-78
2024/01/30 03:04:45;;;;;;;1.33;1.30;;;;;;;3.46;100.00;102666.56;5103557;28;20222;-77
2024/01/30 03:07:12;;;;;;;0.93;0.93;;;;;;;3.47;100.00;102662.34;5102425;28;20224;-78
2024/01/30 03:09:39;;;;;;;0.90;0.90;;;;;;;3.33;100.00;102638.09;5100327;28;20197;-76
2024/01/30 03:12:06;;;;;;;0.80;0.80;;;;;;;3.27;100.00;102640.16;5088129;28;20198;-79
2024/01/30 03:14:35;;;;;;;1.30;1.30;;;;;;;3.52;100.00;102657.59;5057739;28;20194;-78
2024/01/30 03:17:01;;;;;;;0.70;0.70;;;;;;;3.44;100.00;102656.94;5096672;28;20206;-79
2024/01/30 03:19:28;;;;;;;0.90;0.90;;;;;;;3.47;100.00;102655.53;5099759;28;20194;-78
2024/01/30 03:21:55;;;;;;;0.90;0.90;;;;;;;3.47;100.00;102652.97;5096001;28;20198;-78
2024/01/30 03:24:21;;;;;;;1.17;1.17;;;;;;;3.23;100.00;102607.31;5096005;28;20225;-79
2024/01/30 03:26:48;;;;;;;1.90;1.90;;;;;;;3.38;100.00;102652.22;5094776;28;20255;-79
2024/01/30 03:29:15;;;;;;;1.37;1.37;;;;;;;3.28;100.00;102629.09;5094118;28;20250;-78
2024/01/30 03:31:43;;;;;;;2.00;1.90;;;;;;;3.23;100.00;102624.38;5097718;28;20233;-78
2024/01/30 03:34:10;;;;;;;1.10;1.10;;;;;;;3.37;100.00;102647.84;5092846;28;20202;-78
2024/01/30 03:36:37;;;;;;;4.03;2.17;;;;;;;3.33;100.00;102643.22;5093138;28;20206;-77
2024/01/30 03:39:04;;;;;;;1.30;1.20;;;;;;;3.17;100.00;102640.16;5093410;28;20194;-78
2024/01/30 03:41:31;;;;;;;1.60;1.50;;;;;;;3.17;100.00;102645.28;5092705;28;20704;-78
2024/01/30 03:43:58;;;;;;;2.60;2.40;;;;;;;3.15;100.00;102646.78;5096060;28;20233;-79
2024/01/30 03:46:25;;;;;;;4.43;1.80;;;;;;;3.10;100.00;102636.91;5094114;28;20194;-79
2024/01/30 03:48:53;;;;;;;1.57;1.57;;;;;;;3.16;100.00;102656.28;5092983;28;20237;-79
2024/01/30 03:51:20;;;;;;;1.10;1.10;;;;;;;3.09;100.00;102650.50;5093629;28;20202;-79
2024/01/30 03:53:46;;;;;;;1.20;1.20;;;;;;;3.03;100.00;102643.19;5093370;28;20194;-78
2024/01/30 03:56:14;;;;;;;2.03;1.83;;;;;;;3.00;100.00;102640.34;5093299;28;20197;-80
2024/01/30 03:58:41;;;;;;;0.87;0.87;;;;;;;3.00;100.00;102656.63;5092588;28;20256;-79
2024/01/30 04:01:08;;;;;;;1.20;1.20;;;;;;;2.84;100.00;102611.63;5092595;28;20198;-73
2024/01/30 04:03:34;;;;;;;1.93;1.93;;;;;;;3.05;100.00;102648.44;5090565;28;20681;-79
2024/01/30 04:06:03;;;;;;;1.27;1.27;;;;;;;3.15;100.00;102641.66;5091091;28;20229;-79
2024/01/30 04:08:29;;;;;;;1.03;1.03;;;;;;;2.97;100.00;102614.47;5057511;28;20259;-79
2024/01/30 04:10:56;;;;;;;2.07;1.97;;;;;;;3.09;100.00;102619.75;5093022;28;20670;-77
2024/01/30 04:13:23;;;;;;;0.63;0.63;;;;;;;3.32;100.00;102645.66;5092337;28;20247;-79
2024/01/30 04:15:50;;;;;;;1.27;1.27;;;;;;;3.32;100.00;102641.41;5092755;28;20284;-78
2024/01/30 04:18:17;;;;;;;0.77;0.77;;;;;;;2.77;100.00;102558.97;5093850;28;20198;-77
2024/01/30 04:20:43;;;;;;;1.23;1.23;;;;;;;3.30;100.00;102666.06;5095569;28;20254;-76
2024/01/30 04:23:11;;;;;;;0.80;0.80;;;;;;;3.27;100.00;102652.06;5094140;28;20625;-78
2024/01/30 04:25:38;;;;;;;0.90;0.90;;;;;;;3.28;100.00;102667.56;5095336;28;20613;-79
2024/01/30 04:28:05;;;;;;;1.50;1.40;;;;;;;3.34;100.00;102673.25;5102507;28;20212;-77
2024/01/30 04:30:32;;;;;;;1.20;1.20;;;;;;;3.20;100.00;102634.38;5105317;28;20193;-77
2024/01/30 04:32:59;;;;;;;8.03;3.27;;;;;;;3.33;100.00;102644.88;5102868;28;20709;-80
2024/01/30 04:35:26;;;;;;;1.53;1.53;;;;;;;3.38;100.00;102661.56;5092757;28;20213;-79
2024/01/30 04:37:53;;;;;;;1.00;1.00;;;;;;;3.48;99.74;102667.63;5095684;28;20229;-80
2024/01/30 04:40:21;;;;;;;1.97;1.87;;;;;;;3.50;99.85;102671.19;5063242;28;20201;-79
2024/01/30 04:42:48;;;;;;;0.77;0.77;;;;;;;3.19;99.82;102643.72;5093607;28;20602;-78
2024/01/30 04:45:15;;;;;;;0.80;0.80;;;;;;;3.36;100.00;102668.22;5093042;28;20279;-79
2024/01/30 04:47:41;;;;;;;2.67;2.47;;;;;;;3.02;100.00;102673.81;5098853;28;20198;-79
2024/01/30 04:50:09;;;;;;;1.50;1.50;;;;;;;3.07;100.00;102668.28;5100608;28;20198;-80
2024/01/30 04:52:36;;;;;;;1.43;1.43;;;;;;;2.98;100.00;102670.97;5095342;28;20234;-80
2024/01/30 04:55:03;;;;;;;1.63;1.63;;;;;;;2.83;100.00;102658.47;5090923;28;20198;-79
2024/01/30 04:57:33;;;;;;;0.70;0.70;;;;;;;3.04;100.00;102678.28;5095304;28;20202;-79
2024/01/30 05:00:00;;;;;;;1.20;1.20;;;;;;;2.89;100.00;102649.66;5094439;28;20259;-79
2024/01/30 05:02:27;;;;;;;1.80;1.80;;;;;;;3.06;100.00;102670.75;5104262;28;20218;-80
2024/01/30 05:04:53;;;;;;;1.20;1.20;;;;;;;2.91;100.00;102667.75;5071442;28;20362;-79
2024/01/30 05:07:20;;;;;;;1.53;1.53;;;;;;;2.88;100.00;102670.03;5089269;28;20186;-78
2024/01/30 05:09:47;;;;;;;4.77;1.50;;;;;;;2.95;100.00;102675.84;5110103;28;20233;-78
2024/01/30 05:12:14;;;;;;;2.23;1.37;;;;;;;2.97;100.00;102675.94;5068543;28;20265;-80
2024/01/30 05:14:42;;;;;;;1.10;1.10;;;;;;;2.98;100.00;102677.75;5098882;28;20213;-78
2024/01/30 05:17:10;;;;;;;1.73;1.63;;;;;;;2.97;100.00;102675.94;5099306;28;20225;-79
2024/01/30 05:19:36;;;;;;;1.07;1.07;;;;;;;2.96;100.00;102674.19;5106926;28;20198;-78
2024/01/30 05:22:03;;;;;;;0.90;0.90;;;;;;;3.02;100.00;102681.50;5105305;28;20194;-78
2024/01/30 05:24:30;;;;;;;0.83;0.83;;;;;;;2.90;100.00;102683.88;5107616;28;20214;-78
2024/01/30 05:26:57;;;;;;;0.90;0.90;;;;;;;1.93;100.00;102504.66;5068950;28;20213;-79
2024/01/30 05:29:24;;;;;;;1.00;1.00;;;;;;;2.94;100.00;102668.91;5064989;28;20201;-79
2024/01/30 05:31:52;;;;;;;1.60;1.47;;;;;;;3.08;100.00;102682.00;5103365;28;20228;-79
2024/01/30 05:34:19;;;;;;;1.10;1.10;;;;;;;2.89;100.00;102669.28;5093539;28;20198;-82
2024/01/30 05:36:45;;;;;;;1.67;1.67;;;;;;;2.98;100.00;102663.28;5040994;28;20198;-77
2024/01/30 05:39:13;;;;;;;1.10;1.10;;;;;;;3.09;100.00;102691.50;5072839;28;20578;-77
2024/01/30 05:41:40;;;;;;;1.13;1.13;;;;;;;3.05;100.00;102677.53;5094313;28;20195;-80
2024/01/30 05:44:06;;;;;;;1.23;1.23;;;;;;;3.08;100.00;102675.22;5091522;28;20204;-76
2024/01/30 05:46:34;;;;;;;2.63;2.53;;;;;;;3.25;100.00;102695.50;5089493;28;20229;-78
2024/01/30 05:49:03;;;;;;;1.30;1.30;;;;;;;3.11;100.00;102689.97;5085121;28;20209;-80
2024/01/30 05:51:29;;;;;;;1.83;1.83;;;;;;;3.04;100.00;102701.34;5087680;28;20210;-76
2024/01/30 05:53:56;;;;;;;2.30;2.20;;;;;;;3.05;100.00;102700.59;5072613;28;20205;-77
2024/01/30 05:56:23;;;;;;;2.00;1.90;;;;;;;3.13;100.00;102696.13;5092271;28;20695;-79
2024/01/30 05:58:50;;;;;;;1.23;1.13;;;;;;;3.15;100.00;102698.06;5072768;28;20603;-79
2024/01/30 06:01:17;;;;;;;0.80;0.80;;;;;;;3.18;100.00;102693.19;5084307;28;20662;-79
2024/01/30 06:03:44;;;;;;;1.73;1.63;;;;;;;3.19;100.00;102695.00;5072225;28;20252;-75
2024/01/30 06:06:13;;;;;;;1.10;1.10;;;;;;;3.44;100.00;102698.88;5086247;28;20262;-72
2024/01/30 06:08:40;;;;;;;3.47;3.30;;;;;;;3.18;100.00;102693.19;5089629;28;20205;-74
2024/01/30 06:11:10;;;;;;;1.47;1.47;;;;;;;3.18;100.00;102697.41;5089698;28;20228;-74
2024/01/30 06:13:37;;;;;;;0.80;0.80;;;;;;;3.04;100.00;102698.78;5089881;28;20670;-73
2024/01/30 06:16:05;;;;;;;0.80;0.80;;;;;;;3.09;100.00;102700.09;5089948;28;20681;-78
2024/01/30 06:18:32;;;;;;;0.80;0.80;;;;;;;2.92;100.00;102698.66;5076071;28;20202;-74
2024/01/30 06:20:59;;;;;;;0.80;0.80;;;;;;;3.20;100.00;102701.03;5085203;28;20213;-72
2024/01/30 06:23:27;;;;;;;1.20;1.20;;;;;;;3.44;100.00;102698.88;5089899;28;20207;-73
2024/01/30 06:25:53;;;;;;;1.17;1.17;;;;;;;3.45;100.00;102705.81;5075648;28;20233;-73
2024/01/30 06:28:21;;;;;;;1.33;1.33;;;;;;;3.47;100.00;102701.72;5086201;28;20190;-72
2024/01/30 06:30:47;;;;;;;0.90;0.90;;;;;;;3.40;100.00;102712.22;5079045;28;20294;-71
2024/01/30 06:33:14;;;;;;;1.70;1.70;;;;;;;3.29;100.00;102712.97;5082992;28;20209;-73
2024/01/30 06:35:41;;;;;;;0.93;0.93;;;;;;;3.47;100.00;102711.06;5086037;28;20198;-72
2024/01/30 06:38:09;;;;;;;1.33;1.33;;;;;;;3.53;100.00;102710.72;5089854;28;20210;-72
2024/01/30 06:40:37;;;;;;;0.97;0.97;;;;;;;3.58;100.00;102718.00;5089581;28;20208;-73
2024/01/30 06:43:04;;;;;;;2.27;2.17;;;;;;;3.61;100.00;102719.94;5089925;28;20301;-72
2024/01/30 06:45:31;;;;;;;2.07;2.03;;;;;;;3.71;100.00;102719.97;5075472;28;20229;-72
2024/01/30 06:47:58;;;;;;;1.50;1.40;;;;;;;3.80;100.00;102715.59;5083435;28;20206;-72
2024/01/30 06:50:25;;;;;;;1.43;1.30;;;;;;;3.57;100.00;102677.72;5089144;28;20202;-73
2024/01/30 06:52:52;;;;;;;1.33;1.33;;;;;;;3.85;100.00;102701.50;5089913;28;20206;-72
2024/01/30 06:55:19;;;;;;;1.40;1.40;;;;;;;3.74;100.00;102707.38;5083722;28;20203;-72
2024/01/30 06:57:47;;;;;;;2.07;1.97;;;;;;;3.77;100.00;102725.59;5092349;28;20619;-73
2024/01/30 07:00:16;;;;;;;1.27;1.27;;;;;;;3.77;100.00;102720.47;5094029;28;20198;-74
2024/01/30 07:02:42;;;;;;;3.13;2.93;;;;;;;3.85;100.00;102716.88;5082816;28;20287;-73
2024/01/30 07:05:09;;;;;;;1.47;1.37;;;;;;;3.84;100.00;102707.38;5088125;28;20611;-73
2024/01/30 07:07:36;;;;;;;3.37;1.23;;;;;;;3.79;100.00;102721.50;5087056;28;20248;-73
2024/01/30 07:10:03;;;;;;;1.77;1.67;;;;;;;3.76;100.00;102704.19;5080327;28;20211;-73
2024/01/30 07:12:31;;;;;;;1.80;1.80;;;;;;;4.16;99.78;102718.66;5074486;28;20234;-73
2024/01/30 07:15:00;;;;;;;1.00;1.00;;;;;;;4.25;98.33;102721.06;5068265;28;20209;-73
2024/01/30 07:17:27;;;;;;;8.27;3.57;;;;;;;4.30;100.00;102725.84;5083431;28;20642;-72
2024/01/30 07:19:54;;;;;;;4.00;3.70;;;;;;;4.62;100.00;102715.59;5081105;28;20274;-73
2024/01/30 07:22:20;;;;;;;2.27;2.17;;;;;;;4.58;97.32;102725.50;5080303;28;20198;-73
2024/01/30 07:24:49;;;;;;;1.47;1.40;;;;;;;4.48;95.48;102693.94;5087924;28;20628;-73
2024/01/30 07:27:17;;;;;;;1.37;1.37;;;;;;;4.53;93.83;102711.41;5082584;28;20604;-73
2024/01/30 07:29:44;;;;;;;1.80;1.30;;;;;;;4.47;92.57;102712.69;5088008;28;20645;-74
2024/01/30 07:32:12;;;;;;;1.93;1.77;;;;;;;4.75;93.93;102722.63;5080829;28;20206;-74
2024/01/30 07:34:39;;;;;;;4.10;3.27;;;;;;;4.50;91.19;102681.22;5092903;28;20202;-72
2024/01/30 07:37:08;;;;;;;1.23;1.23;;;;;;;4.67;90.63;102734.88;5092680;28;20271;-73
2024/01/30 07:39:35;;;;;;;8.03;4.03;;;;;;;3.49;92.13;102579.66;5079531;28;20205;-75
2024/01/30 07:42:01;;;;;;;3.40;2.80;;;;;;;4.32;94.58;102731.97;5086416;28;20202;-74
2024/01/30 07:44:28;;;;;;;1.73;1.67;;;;;;;4.46;96.68;102731.44;5080950;28;20199;-73
2024/01/30 07:46:57;;;;;;;1.10;1.10;;;;;;;3.58;96.19;102527.28;5090263;28;20218;-72
2024/01/30 07:49:25;;;;;;;4.43;1.70;;;;;;;4.87;94.92;102711.66;5093085;28;20209;-73
2024/01/30 07:51:51;;;;;;;1.03;1.03;;;;;;;6.09;100.00;102716.03;5093243;28;20661;-75
2024/01/30 07:54:18;;;;;;;1.00;1.00;;;;;;;5.45;100.00;102698.25;5074254;28;20194;-73
2024/01/30 07:56:45;;;;;;;1.50;1.50;;;;;;;5.43;100.00;102730.66;5081723;28;20625;-74
2024/01/30 07:59:12;;;;;;;1.57;1.47;;;;;;;5.46;98.61;102731.78;5087818;28;20272;-74
2024/01/30 08:01:39;;;;;;;0.67;0.67;;;;;;;5.33;95.89;102690.47;5082050;28;20706;-74
2024/01/30 08:04:05;;;;;;;3.97;3.67;;;;;;;5.36;95.96;102746.38;5088391;28;20229;-75
2024/01/30 08:06:34;;;;;;;2.43;2.23;;;;;;;5.51;95.61;102727.00;5069612;28;20686;-74
2024/01/30 08:09:00;;;;;;;2.93;2.83;;;;;;;5.35;95.01;102714.63;5090482;28;20586;-74
2024/01/30 08:11:29;;;;;;;1.60;1.43;;;;;;;4.40;95.76;102642.72;5081336;28;20651;-74
2024/01/30 08:13:56;;;;;;;1.80;1.70;;;;;;;5.07;95.94;102736.38;5083165;28;20224;-74
2024/01/30 08:16:23;;;;;;;1.53;1.53;;;;;;;5.13;95.63;102705.13;5091928;28;20201;-75
2024/01/30 08:18:49;;;;;;;0.90;0.90;;;;;;;5.25;94.59;102727.53;5071296;28;20206;-74
2024/01/30 08:21:16;;;;;;;1.10;1.10;;;;;;;5.07;93.61;102696.91;5065369;28;20197;-74
2024/01/30 08:23:44;;;;;;;2.20;1.97;;;;;;;5.12;91.56;102729.94;5082450;28;20242;-74
2024/01/30 08:26:11;;;;;;;1.63;1.60;;;;;;;4.75;90.79;102627.53;5092105;28;20238;-74
2024/01/30 08:28:38;;;;;;;1.87;1.87;;;;;;;4.78;91.27;102604.66;5091614;28;20609;-74
2024/01/30 08:31:05;;;;;;;1.33;1.33;;;;;;;4.26;85.56;102538.00;5085657;28;20739;-74
2024/01/30 08:33:32;;;;;;;3.97;2.77;;;;;;;4.90;84.83;102691.34;5055274;28;20639;-73
2024/01/30 08:35:58;;;;;;;1.10;1.10;;;;;;;5.31;83.83;102717.75;5056075;28;20202;-73
2024/01/30 08:38:25;;;;;;;2.10;2.00;;;;;;;5.03;86.42;102736.91;5055777;28;20205;-74
2024/01/30 08:40:53;;;;;;;1.97;1.87;;;;;;;4.92;93.89;102668.34;5083944;28;20202;-73
2024/01/30 08:43:20;;;;;;;5.70;1.40;;;;;;;4.96;86.73;102721.75;5086281;28;20208;-73
2024/01/30 08:45:47;;;;;;;0.80;0.80;;;;;;;4.88;85.64;102722.84;5082414;28;20226;-73
2024/01/30 08:48:14;;;;;;;2.50;2.40;;;;;;;4.48;84.97;102668.25;5091129;28;20206;-73
2024/01/30 08:50:41;;;;;;;1.87;1.40;;;;;;;4.75;86.20;102730.34;5091529;28;20194;-73
2024/01/30 08:53:07;;;;;;;1.80;1.70;;;;;;;5.09;86.40;102724.56;5088615;28;20209;-73
2024/01/30 08:55:34;;;;;;;3.20;2.17;;;;;;;5.44;83.53;102728.22;5089780;28;20213;-73
2024/01/30 08:58:04;;;;;;;2.10;2.00;;;;;;;5.54;82.02;102734.06;5090927;28;20303;-73
2024/01/30 09:00:31;;;;;;;2.07;1.93;;;;;;;5.56;80.48;102701.63;5090919;28;20194;-74
2024/01/30 09:02:58;;;;;;;2.43;1.47;;;;;;;5.67;79.79;102682.78;5086437;28;20222;-75
2024/01/30 09:05:24;;;;;;;7.00;2.40;;;;;;;5.67;79.97;102713.66;5083099;28;20202;-74
2024/01/30 09:07:51;;;;;;;1.00;1.00;;;;;;;5.28;80.80;102712.34;5089634;28;20210;-74
2024/01/30 09:10:18;;;;;;;1.20;1.20;;;;;;;4.82;82.78;102652.94;5085895;28;20648;-74
2024/01/30 09:12:45;;;;;;;1.43;1.43;;;;;;;5.33;81.57;102720.44;5080453;28;20651;-74
2024/01/30 09:15:13;;;;;;;1.33;1.33;;;;;;;5.64;80.11;102700.53;5084361;28;20242;-74
2024/01/30 09:17:40;;;;;;;0.70;0.70;;;;;;;5.87;78.86;102709.28;5084078;28;20202;-74
2024/01/30 09:20:08;;;;;;;2.80;2.60;;;;;;;5.83;77.38;102721.75;5090709;28;20209;-74
2024/01/30 09:22:35;;;;;;;1.10;1.10;;;;;;;5.48;77.46;102690.75;5063453;28;20306;-74
2024/01/30 09:25:01;;;;;;;2.77;1.50;;;;;;;5.57;79.06;102722.31;5054973;28;20202;-74
2024/01/30 09:27:28;;;;;;;1.50;1.50;;;;;;;5.64;79.91;102714.28;5084767;28;20222;-74
2024/01/30 09:29:55;;;;;;;1.03;1.03;;;;;;;5.78;92.41;102685.34;5084220;28;20202;-73
2024/01/30 09:32:23;;;;;;;1.10;1.10;;;;;;;5.96;90.07;102693.59;5068089;28;20251;-73
2024/01/30 09:34:50;;;;;;;1.27;1.27;;;;;;;6.18;84.34;102717.63;5086861;28;20224;-74
2024/01/30 09:37:18;;;;;;;2.13;2.03;;;;;;;6.26;81.13;102713.94;5074059;28;20215;-74
2024/01/30 09:39:44;;;;;;;1.83;1.83;;;;;;;5.56;79.90;102614.13;5083828;28;20276;-75
2024/01/30 09:42:22;;;;;;;1.33;1.27;;;;;;;5.96;79.25;102649.81;5083591;28;20210;-73
2024/01/30 09:44:52;;;;;;;2.00;1.37;;;;;;;5.83;81.91;102716.59;5090178;28;20289;-73
2024/01/30 09:47:19;;;;;;;1.17;1.17;;;;;;;5.79;80.80;102669.13;5051919;28;20250;-73
2024/01/30 09:49:48;;;;;;;1.07;1.07;;;;;;;5.97;79.39;102706.59;5078922;28;20206;-74
2024/01/30 09:52:16;;;;;;;1.13;1.13;;;;;;;6.17;78.04;102695.19;5078291;28;20213;-73
2024/01/30 09:54:43;;;;;;;1.20;1.20;;;;;;;6.37;77.10;102689.88;5082512;28;20194;-74
2024/01/30 09:57:10;;;;;;;1.53;1.50;;;;;;;5.93;78.81;102699.44;5090112;28;20239;-73
2024/01/30 09:59:37;;;;;;;0.80;0.80;;;;;;;6.11;78.23;102673.25;5070406;28;20218;-74
2024/01/30 10:02:04;;;;;;;1.63;1.53;;;;;;;6.08;78.83;102671.34;5084812;28;20206;-74
2024/01/30 10:04:31;;;;;;;1.63;1.63;;;;;;;5.44;80.62;102638.16;5090347;28;20256;-74
2024/01/30 10:07:02;;;;;;;1.40;1.40;;;;;;;5.92;80.89;102692.47;5090495;28;20218;-74
2024/01/30 10:09:29;;;;;;;2.03;1.93;;;;;;;5.32;80.43;102631.16;5090499;28;20214;-74
2024/01/30 10:11:56;;;;;;;0.90;0.90;;;;;;;5.92;80.30;102691.59;5090241;28;20670;-73
2024/01/30 10:14:22;;;;;;;2.87;2.67;;;;;;;5.87;81.06;102696.41;5090363;28;20198;-73
2024/01/30 10:16:50;;;;;;;1.40;1.40;;;;;;;5.53;78.04;102621.63;5090547;28;20209;-74
2024/01/30 10:19:17;;;;;;;1.40;1.40;;;;;;;6.15;77.68;102685.56;5090536;28;20293;-74
2024/01/30 10:21:44;;;;;;;1.43;1.33;;;;;;;6.22;76.73;102641.44;5089934;28;20201;-73
2024/01/30 10:24:13;;;;;;;10.43;2.47;;;;;;;6.80;75.49;102674.94;5088729;28;20576;-73
2024/01/30 10:26:40;;;;;;;1.57;1.57;;;;;;;6.14;73.66;102586.78;5076972;28;20230;-73
2024/01/30 10:29:07;;;;;;;1.10;1.10;;;;;;;5.74;77.68;102669.59;5090290;28;20692;-74
2024/01/30 10:31:34;;;;;;;3.50;2.50;;;;;;;6.14;89.44;102640.88;5090064;28;20591;-74
2024/01/30 10:34:00;;;;;;;1.40;1.37;;;;;;;6.88;91.66;102673.78;5090042;28;20680;-73
2024/01/30 10:36:30;;;;;;;1.90;1.67;;;;;;;6.54;91.43;102647.25;5089900;28;20254;-74
2024/01/30 10:39:00;;;;;;;1.33;1.23;;;;;;;5.74;86.37;102538.31;5090259;28;20309;-74
2024/01/30 10:41:32;;;;;;;0.90;0.90;;;;;;;6.82;82.02;102674.25;5090081;28;20209;-73
2024/01/30 10:44:04;;;;;;;1.47;1.47;;;;;;;6.70;72.96;102649.28;5090237;28;20202;-73
2024/01/30 10:46:33;;;;;;;1.73;1.73;;;;;;;6.55;71.36;102617.25;5075806;28;20261;-74
2024/01/30 10:49:01;;;;;;;1.63;1.53;;;;;;;6.85;70.48;102638.34;5090138;28;20206;-75
2024/01/30 10:51:29;;;;;;;1.60;1.60;;;;;;;7.14;70.17;102676.50;5089855;28;20286;-74
2024/01/30 10:53:57;;;;;;;3.33;3.13;;;;;;;6.63;71.69;102642.78;5089730;28;20209;-74
2024/01/30 10:56:25;;;;;;;3.80;1.50;;;;;;;5.89;76.56;102634.69;5089901;28;20213;-74
2024/01/30 10:58:55;;;;;;;1.70;1.63;;;;;;;6.12;78.29;102636.41;5089406;28;20673;-75
2024/01/30 11:01:23;;;;;;;6.13;2.50;;;;;;;6.64;76.93;102653.97;5076894;28;20221;-73
2024/01/30 11:03:51;;;;;;;1.47;1.47;;;;;;;6.67;72.56;102633.59;5089968;28;20316;-76
2024/01/30 11:06:19;;;;;;;1.20;1.20;;;;;;;6.80;72.57;102652.63;5089592;28;20229;-73
2024/01/30 11:08:46;;;;;;;1.23;1.23;;;;;;;7.15;86.04;102646.44;5089796;28;20704;-72
2024/01/30 11:11:13;;;;;;;2.20;2.20;;;;;;;7.42;81.77;102638.91;5089599;28;20205;-72
2024/01/30 11:13:41;;;;;;;0.70;0.70;;;;;;;7.45;75.66;102646.88;5089879;28;20205;-72
2024/01/30 11:16:12;;;;;;;2.30;1.70;;;;;;;7.86;86.64;102643.63;5089650;28;20233;-72
2024/01/30 11:18:39;;;;;;;2.63;2.43;;;;;;;7.62;81.02;102622.22;5070911;28;20202;-72
2024/01/30 11:21:06;;;;;;;1.40;1.40;;;;;;;7.74;79.12;102632.50;5089347;28;20209;-72
2024/01/30 11:23:36;;;;;;;0.93;0.93;;;;;;;7.54;76.68;102628.53;5090186;28;20206;-72
2024/01/30 11:26:02;;;;;;;3.03;2.83;;;;;;;7.86;78.47;102622.94;5089427;28;20264;-71
2024/01/30 11:28:34;;;;;;;1.60;1.50;;;;;;;8.28;83.05;102623.22;5089870;28;20191;-73